Time;durP1;ratioP1;P1;durP2;ratioP2;P2;SDS_P1;SDS_P2;PMS_P1;PMS_P2;Temp;Humidity;BMP_temperature;BMP_pressure;BME280_temperature;BME280_humidity;BME280_pressure;Samples;Min_cycle;Max_cycle;Signal;HPM_P1;HPM_P2
2023/09/17 00:01:23;;;;;;;29.35;26.63;;;14.50;99.90;;;;;;5041698;28;20037;-45
2023/09/17 00:03:52;;;;;;;29.25;26.55;;;14.50;99.90;;;;;;5037256;28;20053;-43
2023/09/17 00:06:18;;;;;;;30.45;27.75;;;14.50;99.90;;;;;;5045630;28;20048;-44
2023/09/17 00:08:43;;;;;;;31.70;28.92;;;14.50;99.90;;;;;;5041974;28;20041;-44
2023/09/17 00:11:10;;;;;;;29.85;27.00;;;14.50;99.90;;;;;;5041412;28;20060;-44
2023/09/17 00:13:36;;;;;;;31.20;28.38;;;14.40;99.90;;;;;;5041866;28;20056;-44
2023/09/17 00:16:01;;;;;;;29.75;26.85;;;14.40;99.90;;;;;;5041927;28;20083;-43
2023/09/17 00:18:27;;;;;;;30.98;28.05;;;14.40;99.90;;;;;;5041683;28;20269;-43
2023/09/17 00:20:53;;;;;;;30.83;27.60;;;14.40;99.90;;;;;;5023213;28;20040;-44
2023/09/17 00:23:19;;;;;;;30.35;27.65;;;14.40;99.90;;;;;;5022904;28;20480;-43
2023/09/17 00:25:44;;;;;;;27.65;25.15;;;14.40;99.90;;;;;;5023772;28;20041;-46
2023/09/17 00:28:10;;;;;;;28.00;25.48;;;14.40;99.90;;;;;;5041761;28;20074;-44
2023/09/17 00:30:35;;;;;;;28.52;25.73;;;14.40;99.90;;;;;;5023218;28;20098;-43
2023/09/17 00:33:02;;;;;;;29.25;26.55;;;14.40;99.90;;;;;;5041541;28;20101;-44
2023/09/17 00:35:28;;;;;;;29.98;27.08;;;14.40;99.90;;;;;;5041267;28;20052;-43
2023/09/17 00:37:53;;;;;;;27.98;25.27;;;14.40;99.90;;;;;;5041421;28;20033;-44
2023/09/17 00:40:23;;;;;;;26.42;23.92;;;14.40;99.90;;;;;;5041108;28;20045;-43
2023/09/17 00:42:49;;;;;;;27.13;24.38;;;14.40;99.90;;;;;;5040973;28;20414;-43
2023/09/17 00:45:15;;;;;;;26.73;24.42;;;14.40;99.90;;;;;;5041634;28;20112;-43
2023/09/17 00:47:41;;;;;;;27.60;25.10;;;14.40;99.90;;;;;;5012965;28;20049;-45
2023/09/17 00:50:11;;;;;;;27.48;25.08;;;14.40;99.90;;;;;;5020427;28;20072;-44
2023/09/17 00:52:38;;;;;;;29.35;26.38;;;14.40;99.90;;;;;;5022065;28;20049;-43
2023/09/17 00:55:05;;;;;;;28.42;25.95;;;14.40;99.90;;;;;;5022304;28;20056;-42
2023/09/17 00:57:31;;;;;;;28.48;25.98;;;14.40;99.90;;;;;;5040782;28;20096;-43
2023/09/17 00:59:57;;;;;;;28.20;25.60;;;14.50;99.90;;;;;;5040691;28;20048;-45
2023/09/17 01:02:26;;;;;;;29.42;26.50;;;14.50;99.90;;;;;;5022194;28;20056;-43
2023/09/17 01:04:52;;;;;;;30.60;28.00;;;14.60;99.90;;;;;;5022406;28;20071;-43
2023/09/17 01:07:19;;;;;;;31.42;28.42;;;14.50;99.90;;;;;;5040860;28;20041;-43
2023/09/17 01:09:45;;;;;;;30.63;27.45;;;14.60;99.90;;;;;;5039755;28;20171;-43
2023/09/17 01:12:12;;;;;;;30.40;27.65;;;14.70;99.90;;;;;;5022027;28;20124;-44
2023/09/17 01:14:38;;;;;;;28.77;25.92;;;14.70;99.90;;;;;;5040243;28;20036;-43
2023/09/17 01:17:09;;;;;;;31.40;28.45;;;14.70;99.90;;;;;;5022878;28;20163;-43
2023/09/17 01:19:35;;;;;;;29.88;27.23;;;14.70;99.90;;;;;;5040566;28;20041;-44
2023/09/17 01:22:20;;;;;;;31.52;28.60;;;14.70;99.90;;;;;;5039815;28;20473;-43
2023/09/17 01:25:14;;;;;;;28.92;26.23;;;14.80;99.90;;;;;;5010947;28;20049;-45
2023/09/17 01:27:41;;;;;;;27.70;25.08;;;14.80;99.90;;;;;;5022441;28;20080;-43
2023/09/17 01:30:27;;;;;;;27.33;24.80;;;14.80;99.90;;;;;;5039979;28;20053;-43
2023/09/17 01:32:53;;;;;;;28.13;25.73;;;14.90;99.90;;;;;;5010778;28;20613;-43
2023/09/17 01:35:20;;;;;;;31.90;28.95;;;14.90;99.90;;;;;;5039837;28;20300;-42
2023/09/17 01:37:56;;;;;;;30.10;27.40;;;14.90;99.90;;;;;;5021661;28;20045;-45
2023/09/17 01:40:23;;;;;;;29.65;26.90;;;14.90;99.90;;;;;;5039455;28;20408;-44
2023/09/17 01:42:51;;;;;;;30.33;27.63;;;15.00;99.90;;;;;;5039774;28;20156;-44
2023/09/17 01:45:18;;;;;;;29.80;26.80;;;15.00;99.90;;;;;;5039908;28;20051;-43
2023/09/17 01:47:46;;;;;;;29.73;27.05;;;15.10;99.90;;;;;;5029685;28;20450;-44
2023/09/17 01:50:15;;;;;;;29.90;27.08;;;15.10;99.90;;;;;;5037490;28;20057;-44
2023/09/17 01:52:42;;;;;;;28.77;26.30;;;15.10;99.90;;;;;;5021767;28;20057;-45
2023/09/17 01:55:08;;;;;;;30.55;27.73;;;15.10;99.90;;;;;;5040075;28;20041;-43
2023/09/17 01:57:34;;;;;;;31.15;28.42;;;15.10;99.90;;;;;;5040022;28;20143;-47
2023/09/17 02:00:00;;;;;;;34.10;30.85;;;15.10;99.90;;;;;;5021461;28;20041;-45
2023/09/17 02:02:26;;;;;;;30.83;27.90;;;15.10;99.90;;;;;;5022380;28;20231;-43
2023/09/17 02:04:52;;;;;;;30.65;27.60;;;15.20;99.90;;;;;;5045433;28;20080;-43
2023/09/17 02:07:18;;;;;;;31.38;28.38;;;15.20;99.90;;;;;;5039356;28;20124;-43
2023/09/17 02:09:44;;;;;;;29.27;26.52;;;15.20;99.90;;;;;;5040010;28;20060;-44
2023/09/17 02:12:09;;;;;;;32.58;29.40;;;15.20;99.90;;;;;;5039779;28;20369;-44
2023/09/17 02:14:35;;;;;;;32.15;29.10;;;15.30;99.90;;;;;;5041181;28;20037;-45
2023/09/17 02:17:03;;;;;;;30.38;27.48;;;15.30;99.90;;;;;;5009703;28;20131;-43
2023/09/17 02:19:28;;;;;;;31.92;28.95;;;15.30;99.90;;;;;;5027547;28;20297;-43
2023/09/17 02:21:54;;;;;;;33.72;30.15;;;15.40;99.90;;;;;;5043422;28;20128;-43
2023/09/17 02:24:20;;;;;;;33.33;30.23;;;15.40;99.90;;;;;;5044147;28;20449;-44
2023/09/17 02:26:46;;;;;;;31.73;28.83;;;15.50;99.90;;;;;;5025748;28;20157;-44
2023/09/17 02:29:12;;;;;;;33.15;29.67;;;15.40;99.90;;;;;;5026161;28;20041;-44
2023/09/17 02:31:38;;;;;;;32.17;29.08;;;15.40;99.90;;;;;;5043010;28;20313;-43
2023/09/17 02:34:04;;;;;;;32.78;29.80;;;15.50;99.90;;;;;;5043674;28;20045;-43
2023/09/17 02:36:30;;;;;;;32.88;29.55;;;15.50;99.90;;;;;;5009161;28;20045;-43
2023/09/17 02:38:56;;;;;;;32.38;29.30;;;15.50;99.90;;;;;;5043743;28;20457;-43
2023/09/17 02:41:22;;;;;;;34.00;30.55;;;15.50;99.90;;;;;;5043043;28;20072;-43
2023/09/17 02:43:48;;;;;;;35.50;32.08;;;15.50;99.90;;;;;;5043729;28;20048;-43
2023/09/17 02:46:13;;;;;;;33.58;30.25;;;15.50;99.90;;;;;;5025270;28;20491;-43
2023/09/17 02:48:39;;;;;;;34.53;31.20;;;15.60;99.90;;;;;;5030276;28;20044;-45
2023/09/17 02:51:05;;;;;;;36.15;32.45;;;15.50;99.90;;;;;;5042705;28;20067;-43
2023/09/17 02:53:30;;;;;;;35.38;32.17;;;15.50;99.90;;;;;;5024650;28;20037;-44
2023/09/17 02:55:57;;;;;;;38.95;35.17;;;15.60;99.90;;;;;;5043166;28;20490;-43
2023/09/17 02:58:23;;;;;;;38.47;34.85;;;15.50;99.90;;;;;;5024961;28;20116;-42
2023/09/17 03:00:49;;;;;;;38.90;35.30;;;15.50;99.90;;;;;;5042778;28;20040;-44
2023/09/17 03:03:15;;;;;;;38.58;35.00;;;15.60;99.90;;;;;;5042444;28;20049;-47
2023/09/17 03:05:46;;;;;;;41.50;37.47;;;15.60;99.90;;;;;;5033914;28;20340;-43
2023/09/17 03:08:12;;;;;;;42.40;38.40;;;15.60;99.90;;;;;;5043168;28;20851;-45
2023/09/17 03:10:41;;;;;;;40.63;36.92;;;15.50;99.90;;;;;;5021140;28;20065;-44
2023/09/17 03:13:12;;;;;;;39.90;36.17;;;15.60;99.90;;;;;;5022859;28;20393;-44
2023/09/17 03:15:38;;;;;;;41.85;37.90;;;15.50;99.90;;;;;;5021668;28;20033;-43
2023/09/17 03:18:04;;;;;;;37.28;33.80;;;15.60;99.90;;;;;;5008500;28;20045;-44
2023/09/17 03:20:33;;;;;;;41.08;37.30;;;15.50;99.90;;;;;;5021232;28;20050;-45
2023/09/17 03:23:02;;;;;;;42.25;38.22;;;15.50;99.90;;;;;;5021303;28;20049;-44
2023/09/17 03:25:29;;;;;;;38.42;34.85;;;15.60;99.90;;;;;;5022697;28;20558;-45
2023/09/17 03:27:55;;;;;;;42.22;38.15;;;15.60;99.90;;;;;;5022932;28;20098;-44
2023/09/17 03:30:21;;;;;;;39.95;36.25;;;15.60;99.90;;;;;;5022646;28;20088;-44
2023/09/17 03:32:47;;;;;;;40.88;37.15;;;15.60;99.90;;;;;;5022380;28;20121;-45
2023/09/17 03:35:13;;;;;;;42.00;38.10;;;15.60;99.90;;;;;;5021281;28;20037;-46
2023/09/17 03:37:39;;;;;;;42.05;38.28;;;15.60;99.90;;;;;;5021220;28;20072;-43
2023/09/17 03:40:11;;;;;;;40.03;36.22;;;15.60;99.90;;;;;;5021953;28;20041;-45
2023/09/17 03:42:38;;;;;;;42.33;38.22;;;15.50;99.90;;;;;;5021754;28;20045;-43
2023/09/17 03:45:09;;;;;;;41.42;37.65;;;15.50;99.90;;;;;;5022342;28;20482;-45
2023/09/17 03:47:36;;;;;;;41.22;37.28;;;15.50;99.90;;;;;;5011899;28;20103;-44
2023/09/17 03:50:04;;;;;;;41.92;37.97;;;15.50;99.90;;;;;;5019172;28;20488;-43
2023/09/17 03:52:30;;;;;;;41.10;37.05;;;15.50;99.90;;;;;;5020043;28;20487;-45
2023/09/17 03:54:56;;;;;;;46.88;41.95;;;15.50;99.90;;;;;;5022161;28;20336;-44
2023/09/17 03:57:22;;;;;;;45.08;40.65;;;15.60;99.90;;;;;;5021884;28;20076;-45
2023/09/17 03:59:48;;;;;;;42.92;38.72;;;15.60;99.90;;;;;;5003474;28;20382;-44
2023/09/17 04:02:14;;;;;;;44.97;40.63;;;15.50;99.90;;;;;;5021020;28;20270;-45
2023/09/17 04:04:40;;;;;;;42.50;38.50;;;15.50;99.90;;;;;;5027371;28;20049;-44
2023/09/17 04:07:06;;;;;;;44.28;40.35;;;15.60;99.90;;;;;;5021406;28;20118;-43
2023/09/17 04:09:31;;;;;;;45.22;40.83;;;15.60;99.90;;;;;;5003572;28;20178;-44
2023/09/17 04:12:04;;;;;;;44.83;40.67;;;15.60;99.90;;;;;;5020207;28;20068;-44
2023/09/17 04:14:31;;;;;;;44.20;40.08;;;15.60;99.90;;;;;;5021915;28;20041;-45
2023/09/17 04:16:59;;;;;;;45.85;41.50;;;15.60;99.90;;;;;;5020609;28;20056;-44
2023/09/17 04:19:24;;;;;;;47.15;42.58;;;15.60;99.90;;;;;;5022026;28;20045;-46
2023/09/17 04:21:50;;;;;;;46.72;42.10;;;15.60;99.90;;;;;;5020253;28;20099;-45
2023/09/17 04:24:16;;;;;;;43.70;39.70;;;15.60;99.90;;;;;;5020829;28;20092;-46
2023/09/17 04:26:44;;;;;;;47.42;42.47;;;15.60;99.90;;;;;;5022616;28;20125;-43
2023/09/17 04:29:10;;;;;;;45.63;41.53;;;15.60;99.90;;;;;;5021915;28;20124;-43
2023/09/17 04:31:36;;;;;;;46.20;41.95;;;15.60;99.90;;;;;;5019720;28;20483;-45
2023/09/17 04:34:01;;;;;;;45.47;41.05;;;15.60;99.90;;;;;;5003782;28;20719;-43
2023/09/17 04:36:27;;;;;;;47.25;42.30;;;15.60;99.90;;;;;;5020458;28;20045;-46
2023/09/17 04:38:53;;;;;;;46.15;41.75;;;15.60;99.90;;;;;;5018988;28;20481;-47
2023/09/17 04:41:19;;;;;;;44.70;40.70;;;15.60;99.90;;;;;;5020389;28;20088;-46
2023/09/17 04:43:44;;;;;;;46.75;42.25;;;15.70;99.90;;;;;;5019424;28;20637;-47
2023/09/17 04:46:10;;;;;;;46.60;42.17;;;15.70;99.90;;;;;;5021308;28;20037;-45
2023/09/17 04:48:36;;;;;;;48.25;43.75;;;15.70;99.90;;;;;;5007236;28;20456;-45
2023/09/17 04:51:01;;;;;;;49.78;44.78;;;15.70;99.90;;;;;;5020457;28;20555;-44
2023/09/17 04:53:27;;;;;;;45.72;41.53;;;15.80;99.90;;;;;;5019509;28;20052;-45
2023/09/17 04:55:54;;;;;;;48.72;44.13;;;15.80;99.90;;;;;;5021634;28;20041;-46
2023/09/17 04:58:19;;;;;;;51.20;45.92;;;15.70;99.90;;;;;;5019753;28;20041;-44
2023/09/17 05:00:45;;;;;;;49.40;44.70;;;15.80;99.90;;;;;;5019192;28;20041;-44
2023/09/17 05:03:11;;;;;;;51.38;46.33;;;15.80;99.90;;;;;;5016569;28;20038;-46
2023/09/17 05:05:37;;;;;;;50.92;46.10;;;15.90;99.90;;;;;;5023761;28;20049;-44
2023/09/17 05:08:03;;;;;;;52.08;47.17;;;15.90;99.90;;;;;;5019016;28;20471;-44
2023/09/17 05:10:29;;;;;;;47.92;43.35;;;15.80;99.90;;;;;;5036383;28;20064;-47
2023/09/17 05:12:56;;;;;;;51.33;46.35;;;15.90;99.90;;;;;;5040546;28;20519;-44
2023/09/17 05:15:22;;;;;;;48.60;44.00;;;15.80;99.90;;;;;;5022523;28;20043;-47
2023/09/17 05:17:48;;;;;;;48.00;43.63;;;15.90;99.90;;;;;;5022266;28;20400;-45
2023/09/17 05:20:13;;;;;;;52.83;48.03;;;15.90;99.90;;;;;;5040397;28;20781;-44
2023/09/17 05:22:39;;;;;;;50.13;45.45;;;15.90;99.90;;;;;;5039745;28;20442;-47
2023/09/17 05:25:08;;;;;;;46.30;42.20;;;15.90;99.90;;;;;;5040668;28;20049;-44
2023/09/17 05:27:33;;;;;;;51.70;46.53;;;16.00;99.90;;;;;;5040438;28;20037;-43
2023/09/17 05:30:00;;;;;;;53.08;47.58;;;15.90;99.90;;;;;;5039861;28;20436;-43
2023/09/17 05:32:26;;;;;;;54.55;49.00;;;15.90;99.90;;;;;;5040004;28;20078;-44
2023/09/17 05:34:52;;;;;;;51.95;46.95;;;16.00;99.90;;;;;;5040425;28;20056;-45
2023/09/17 05:37:18;;;;;;;51.45;46.70;;;15.90;99.90;;;;;;5040249;28;20049;-44
2023/09/17 05:39:43;;;;;;;49.05;44.25;;;16.00;99.90;;;;;;5040437;28;20051;-44
2023/09/17 05:42:09;;;;;;;47.08;42.53;;;16.00;99.90;;;;;;5040082;28;20089;-44
2023/09/17 05:44:34;;;;;;;50.20;45.22;;;16.00;99.90;;;;;;5022675;28;20515;-43
2023/09/17 05:47:00;;;;;;;50.13;45.47;;;16.00;99.90;;;;;;5035695;28;20041;-43
2023/09/17 05:49:26;;;;;;;50.53;45.42;;;16.10;99.90;;;;;;5040350;28;20041;-44
2023/09/17 05:51:51;;;;;;;49.00;44.42;;;16.10;99.90;;;;;;5039651;28;20094;-43
2023/09/17 05:54:17;;;;;;;47.47;42.95;;;16.20;99.90;;;;;;5022077;28;20484;-44
2023/09/17 05:56:43;;;;;;;47.95;43.45;;;16.20;99.90;;;;;;5022814;28;20055;-44
2023/09/17 05:59:08;;;;;;;51.85;46.95;;;16.20;99.90;;;;;;5006139;28;20037;-46
2023/09/17 06:01:34;;;;;;;48.08;43.17;;;16.20;99.90;;;;;;5039494;28;20052;-44
2023/09/17 06:04:00;;;;;;;51.33;46.47;;;16.30;99.90;;;;;;5025389;28;20363;-44
2023/09/17 06:06:25;;;;;;;49.42;44.72;;;16.30;99.90;;;;;;5043039;28;20057;-43
2023/09/17 06:08:52;;;;;;;51.60;46.38;;;16.30;99.90;;;;;;5005580;28;20041;-44
2023/09/17 06:11:18;;;;;;;48.00;43.50;;;16.30;99.90;;;;;;5033719;28;20053;-43
2023/09/17 06:13:44;;;;;;;52.03;46.80;;;16.40;99.90;;;;;;5005803;28;20098;-44
2023/09/17 06:16:09;;;;;;;48.30;43.58;;;16.40;99.90;;;;;;5039983;28;20152;-44
2023/09/17 06:18:35;;;;;;;49.47;44.78;;;16.40;99.90;;;;;;5040054;28;20170;-44
2023/09/17 06:21:01;;;;;;;48.65;43.78;;;16.50;99.90;;;;;;5039765;28;20059;-44
2023/09/17 06:23:27;;;;;;;50.30;45.45;;;16.50;99.90;;;;;;5040300;28;20132;-43
2023/09/17 06:25:53;;;;;;;48.67;43.97;;;16.50;99.90;;;;;;5040539;28;20504;-43
2023/09/17 06:28:18;;;;;;;48.40;43.60;;;16.60;99.90;;;;;;5022371;28;20037;-43
2023/09/17 06:30:45;;;;;;;47.83;43.40;;;16.60;99.90;;;;;;5039762;28;20097;-45
2023/09/17 06:33:11;;;;;;;48.00;43.45;;;16.60;99.90;;;;;;5021682;28;20107;-43
2023/09/17 06:35:37;;;;;;;48.38;43.80;;;16.70;99.90;;;;;;5022120;28;20331;-42
2023/09/17 06:38:02;;;;;;;47.03;42.70;;;16.70;99.90;;;;;;5022140;28;20061;-43
2023/09/17 06:40:28;;;;;;;48.63;43.95;;;16.80;99.90;;;;;;5039842;28;20045;-43
2023/09/17 06:42:53;;;;;;;51.25;46.35;;;16.80;99.90;;;;;;5039964;28;20102;-43
2023/09/17 06:45:19;;;;;;;48.97;44.60;;;16.90;99.90;;;;;;5021899;28;20051;-45
2023/09/17 06:47:46;;;;;;;50.08;45.42;;;16.90;99.90;;;;;;5039846;28;20062;-43
2023/09/17 06:50:12;;;;;;;47.47;43.00;;;16.90;99.90;;;;;;5039386;28;20442;-46
2023/09/17 06:52:37;;;;;;;47.38;42.60;;;17.00;99.90;;;;;;5022144;28;20048;-44
2023/09/17 06:55:04;;;;;;;47.65;43.20;;;17.00;99.90;;;;;;5039969;28;20490;-45
2023/09/17 06:57:31;;;;;;;49.75;44.80;;;17.10;99.90;;;;;;5040452;28;20045;-43
2023/09/17 06:59:56;;;;;;;47.17;42.75;;;17.00;99.90;;;;;;5039746;28;20063;-44
2023/09/17 07:02:22;;;;;;;48.15;43.70;;;17.00;99.90;;;;;;5024865;28;20052;-43
2023/09/17 07:04:48;;;;;;;46.53;42.22;;;17.00;99.90;;;;;;5043712;28;20503;-44
2023/09/17 07:07:13;;;;;;;46.15;41.95;;;16.90;99.90;;;;;;5025937;28;20049;-44
2023/09/17 07:09:39;;;;;;;44.75;40.80;;;17.00;99.90;;;;;;5025379;28;20067;-44
2023/09/17 07:12:05;;;;;;;46.35;41.63;;;16.90;99.90;;;;;;5043195;28;20505;-44
2023/09/17 07:14:31;;;;;;;45.05;41.05;;;17.00;99.90;;;;;;5025578;28;20037;-43
2023/09/17 07:16:57;;;;;;;46.22;41.90;;;16.90;99.90;;;;;;5036941;28;20664;-44
2023/09/17 07:19:22;;;;;;;48.70;43.72;;;16.90;99.90;;;;;;5004676;28;20052;-46
2023/09/17 07:21:48;;;;;;;45.78;41.35;;;16.90;99.90;;;;;;5042929;28;20084;-43
2023/09/17 07:24:13;;;;;;;45.53;41.08;;;16.90;99.90;;;;;;5024608;28;20430;-44
2023/09/17 07:26:39;;;;;;;44.78;40.30;;;16.90;99.90;;;;;;5008291;28;20078;-43
2023/09/17 07:29:05;;;;;;;45.22;41.00;;;16.90;99.90;;;;;;5042572;28;20029;-46
2023/09/17 07:31:31;;;;;;;46.78;42.33;;;16.90;99.90;;;;;;5042720;28;20591;-45
2023/09/17 07:33:56;;;;;;;47.08;42.90;;;16.90;99.90;;;;;;5042485;28;20178;-44
2023/09/17 07:36:22;;;;;;;50.83;45.92;;;16.90;99.90;;;;;;5043042;28;20086;-44
2023/09/17 07:38:47;;;;;;;45.67;41.28;;;16.90;99.90;;;;;;5042470;28;20188;-44
2023/09/17 07:41:13;;;;;;;44.88;40.45;;;16.80;99.90;;;;;;5041795;28;20500;-44
2023/09/17 07:43:39;;;;;;;44.63;40.30;;;16.90;99.90;;;;;;5025054;28;20132;-45
2023/09/17 07:46:05;;;;;;;43.72;39.60;;;16.90;99.90;;;;;;5042679;28;20044;-45
2023/09/17 07:48:31;;;;;;;45.15;41.20;;;16.90;99.90;;;;;;5024177;28;20037;-44
2023/09/17 07:50:58;;;;;;;46.53;42.03;;;16.80;99.90;;;;;;5023567;28;20032;-44
2023/09/17 07:53:25;;;;;;;47.45;42.95;;;16.90;99.90;;;;;;5007380;28;20041;-44
2023/09/17 07:55:50;;;;;;;47.20;42.85;;;16.90;99.90;;;;;;5024002;28;20049;-43
2023/09/17 07:58:16;;;;;;;53.58;48.15;;;16.80;99.90;;;;;;5042099;28;20035;-47
2023/09/17 08:00:45;;;;;;;51.28;45.95;;;16.80;99.90;;;;;;5041174;28;20590;-43
2023/09/17 08:03:18;;;;;;;52.05;46.92;;;16.80;99.90;;;;;;5022920;28;20049;-43
2023/09/17 08:05:45;;;;;;;50.13;44.95;;;16.80;99.90;;;;;;5043701;28;20048;-43
2023/09/17 08:08:11;;;;;;;52.03;46.85;;;16.70;99.90;;;;;;5007322;28;20064;-44
2023/09/17 08:10:37;;;;;;;55.45;50.10;;;16.80;99.90;;;;;;5041184;28;20394;-43
2023/09/17 08:13:03;;;;;;;54.45;48.83;;;16.70;99.90;;;;;;5039742;28;20480;-44
2023/09/17 08:15:29;;;;;;;54.83;49.65;;;16.80;99.90;;;;;;5041700;28;20520;-45
2023/09/17 08:17:56;;;;;;;54.78;49.42;;;16.70;99.90;;;;;;5040708;28;20041;-45
2023/09/17 08:20:22;;;;;;;55.15;49.67;;;16.80;99.90;;;;;;5041243;28;20080;-44
2023/09/17 08:22:51;;;;;;;56.83;51.30;;;16.80;99.90;;;;;;5023474;28;20051;-43
2023/09/17 08:25:17;;;;;;;56.97;51.47;;;16.80;99.90;;;;;;5041769;28;20075;-43
2023/09/17 08:27:43;;;;;;;56.58;50.90;;;16.90;99.90;;;;;;5041891;28;20494;-44
2023/09/17 08:30:12;;;;;;;50.45;45.75;;;16.80;99.90;;;;;;5041374;28;20066;-44
2023/09/17 08:32:39;;;;;;;52.45;47.45;;;16.80;99.90;;;;;;5010333;28;20049;-44
2023/09/17 08:35:06;;;;;;;52.28;47.03;;;16.90;99.90;;;;;;5023359;28;20120;-43
2023/09/17 08:37:33;;;;;;;53.45;48.55;;;16.90;99.90;;;;;;5023309;28;20159;-44
2023/09/17 08:39:59;;;;;;;53.03;47.95;;;16.90;99.90;;;;;;5038684;28;20045;-45
2023/09/17 08:42:27;;;;;;;56.08;50.08;;;16.90;99.90;;;;;;5041791;28;20056;-44
2023/09/17 08:44:56;;;;;;;54.65;49.45;;;16.80;99.90;;;;;;5023022;28;20416;-44
2023/09/17 08:47:22;;;;;;;57.30;51.55;;;16.80;99.90;;;;;;5015994;28;20464;-44
2023/09/17 08:49:48;;;;;;;52.72;47.63;;;16.80;99.90;;;;;;5037240;28;20106;-44
2023/09/17 08:52:17;;;;;;;59.85;54.05;;;16.80;99.90;;;;;;5039275;28;20037;-43
2023/09/17 08:54:43;;;;;;;62.17;55.85;;;16.80;99.90;;;;;;5006060;28;20075;-44
2023/09/17 08:57:12;;;;;;;61.40;55.03;;;16.80;99.90;;;;;;5022785;28;20041;-44
2023/09/17 08:59:41;;;;;;;57.95;52.17;;;16.90;99.90;;;;;;5040294;28;20080;-44
2023/09/17 09:02:24;;;;;;;68.03;60.75;;;16.90;99.90;;;;;;5021983;28;20132;-48
2023/09/17 09:04:51;;;;;;;63.38;56.47;;;16.80;99.90;;;;;;5040348;28;20559;-43
2023/09/17 09:07:23;;;;;;;66.85;59.88;;;16.90;99.90;;;;;;5040334;28;20082;-44
2023/09/17 09:09:51;;;;;;;65.07;58.22;;;16.80;99.90;;;;;;5020077;28;20057;-46
2023/09/17 09:12:17;;;;;;;77.95;64.55;;;16.90;99.90;;;;;;5037592;28;20557;-44
2023/09/17 09:14:44;;;;;;;64.57;57.60;;;16.80;99.90;;;;;;5022325;28;20041;-45
2023/09/17 09:17:10;;;;;;;65.63;58.88;;;16.90;99.90;;;;;;5046870;28;20047;-48
2023/09/17 09:19:36;;;;;;;75.45;64.43;;;16.80;99.90;;;;;;5037783;28;20052;-47
2023/09/17 09:22:02;;;;;;;65.15;58.72;;;16.80;99.90;;;;;;5038007;28;20036;-47
2023/09/17 09:24:45;;;;;;;62.28;55.85;;;16.80;99.90;;;;;;5053458;28;20617;-45
2023/09/17 09:27:10;;;;;;;64.23;57.33;;;16.80;99.90;;;;;;5037390;28;20055;-47
2023/09/17 09:29:36;;;;;;;59.40;53.03;;;16.80;99.90;;;;;;5028469;28;20048;-48
2023/09/17 09:32:04;;;;;;;61.33;55.20;;;16.70;99.90;;;;;;5039364;28;20041;-46
2023/09/17 09:34:30;;;;;;;62.60;56.13;;;16.80;99.90;;;;;;5037467;28;20044;-45
2023/09/17 09:36:56;;;;;;;62.08;55.60;;;16.80;99.90;;;;;;5004957;28;20120;-47
2023/09/17 09:39:22;;;;;;;64.20;57.17;;;16.80;99.90;;;;;;5039731;28;20454;-46
2023/09/17 09:41:50;;;;;;;56.08;50.45;;;16.80;99.90;;;;;;5039278;28;20044;-45
2023/09/17 09:44:16;;;;;;;62.65;55.78;;;16.80;99.90;;;;;;5039643;28;20504;-47
2023/09/17 09:46:42;;;;;;;57.28;51.33;;;16.80;99.90;;;;;;5037840;28;20132;-45
2023/09/17 09:49:07;;;;;;;63.85;55.85;;;16.90;99.90;;;;;;5021212;28;20071;-46
2023/09/17 09:51:35;;;;;;;65.30;57.00;;;16.90;99.90;;;;;;5029442;28;20041;-46
2023/09/17 09:54:02;;;;;;;55.22;49.67;;;17.00;99.90;;;;;;5021553;28;20033;-47
2023/09/17 09:56:28;;;;;;;58.63;52.70;;;17.00;99.90;;;;;;5039678;28;20037;-46
2023/09/17 09:58:55;;;;;;;55.75;50.28;;;17.00;99.90;;;;;;5021365;28;20064;-44
2023/09/17 10:01:20;;;;;;;59.92;54.10;;;17.10;99.90;;;;;;5039389;28;20068;-48
2023/09/17 10:03:47;;;;;;;58.80;52.80;;;17.20;99.90;;;;;;5024853;28;20136;-48
2023/09/17 10:06:13;;;;;;;60.50;54.50;;;17.20;99.90;;;;;;5039525;28;20504;-46
2023/09/17 10:08:40;;;;;;;53.78;48.50;;;17.30;99.90;;;;;;5021968;28;20515;-47
2023/09/17 10:11:09;;;;;;;45.47;41.42;;;17.40;99.90;;;;;;5038975;28;20051;-44
2023/09/17 10:13:35;;;;;;;44.17;40.03;;;17.40;99.90;;;;;;5040103;28;20589;-46
2023/09/17 10:16:02;;;;;;;42.80;38.83;;;17.50;99.90;;;;;;5039786;28;20382;-49
2023/09/17 10:18:35;;;;;;;46.45;42.05;;;17.60;99.90;;;;;;5019243;28;20504;-46
2023/09/17 10:21:02;;;;;;;48.70;44.13;;;17.60;99.90;;;;;;5038391;28;20040;-48
2023/09/17 10:23:29;;;;;;;52.25;47.45;;;17.70;99.90;;;;;;5039329;28;20045;-46
2023/09/17 10:25:58;;;;;;;51.53;46.67;;;17.80;99.90;;;;;;5021512;28;20044;-49
2023/09/17 10:28:24;;;;;;;51.08;44.80;;;17.70;99.90;;;;;;5039619;28;20037;-47
2023/09/17 10:30:51;;;;;;;52.88;47.40;;;17.70;99.90;;;;;;4998860;28;20048;-46
2023/09/17 10:33:18;;;;;;;51.05;46.13;;;17.70;99.90;;;;;;5019998;28;20399;-48
2023/09/17 10:35:44;;;;;;;53.28;47.88;;;17.70;99.90;;;;;;5040384;28;20049;-47
2023/09/17 10:38:11;;;;;;;49.10;44.65;;;17.70;99.90;;;;;;5025549;28;20045;-45
2023/09/17 10:40:37;;;;;;;50.53;45.67;;;17.80;99.90;;;;;;5042975;28;20149;-45
2023/09/17 10:43:06;;;;;;;50.67;45.55;;;17.70;99.90;;;;;;5043258;28;20045;-44
2023/09/17 10:45:35;;;;;;;50.63;45.65;;;17.80;99.90;;;;;;5008874;28;20040;-45
2023/09/17 10:48:04;;;;;;;50.15;45.55;;;17.90;99.90;;;;;;5043633;28;20053;-45
2023/09/17 10:50:34;;;;;;;45.78;41.47;;;18.00;99.90;;;;;;5024593;28;20606;-45
2023/09/17 10:53:00;;;;;;;43.13;38.97;;;18.00;99.90;;;;;;5009138;28;20078;-45
2023/09/17 10:55:28;;;;;;;44.30;40.17;;;18.00;99.90;;;;;;5025508;28;20488;-44
2023/09/17 10:58:34;;;;;;;42.28;38.22;;;17.90;99.90;;;;;;5025296;28;20047;-46
2023/09/17 11:01:01;;;;;;;39.13;35.53;;;17.80;99.90;;;;;;5014727;28;20056;-45
2023/09/17 11:03:29;;;;;;;40.78;36.70;;;17.70;99.90;;;;;;5024493;28;20095;-44
2023/09/17 11:05:56;;;;;;;36.83;33.33;;;17.60;99.90;;;;;;5043450;28;20037;-46
2023/09/17 11:08:22;;;;;;;40.88;37.13;;;17.60;99.90;;;;;;5042611;28;20044;-44
2023/09/17 11:10:48;;;;;;;39.92;35.97;;;17.60;99.90;;;;;;5038807;28;20068;-46
2023/09/17 11:13:14;;;;;;;41.58;37.67;;;17.70;99.90;;;;;;5042270;28;20890;-45
2023/09/17 11:15:42;;;;;;;38.35;34.67;;;17.90;99.90;;;;;;5042663;28;20033;-46
2023/09/17 11:18:08;;;;;;;37.13;33.75;;;18.10;99.90;;;;;;5039162;28;20587;-44
2023/09/17 11:20:36;;;;;;;39.22;35.58;;;18.30;99.90;;;;;;5031026;28;20112;-44
2023/09/17 11:23:02;;;;;;;42.45;38.45;;;18.40;99.90;;;;;;5041994;28;20340;-45
2023/09/17 11:25:36;;;;;;;36.42;33.22;;;18.60;99.90;;;;;;5023989;28;20095;-45
2023/09/17 11:28:12;;;;;;;36.53;33.17;;;18.80;99.90;;;;;;5040374;28;20179;-45
2023/09/17 11:30:58;;;;;;;37.15;33.70;;;18.80;99.90;;;;;;5024130;28;20385;-44
2023/09/17 11:33:26;;;;;;;38.63;35.13;;;18.90;99.90;;;;;;5054404;28;20139;-44
2023/09/17 11:35:56;;;;;;;40.03;36.40;;;19.10;99.90;;;;;;5043504;28;20118;-45
2023/09/17 11:38:26;;;;;;;34.90;31.80;;;19.10;99.90;;;;;;5042676;28;20111;-44
2023/09/17 11:41:11;;;;;;;34.83;31.52;;;19.10;99.90;;;;;;5023714;28;20439;-45
2023/09/17 11:43:48;;;;;;;33.53;30.13;;;19.00;99.90;;;;;;5024761;28;20049;-45
2023/09/17 11:46:15;;;;;;;35.72;32.35;;;18.90;99.90;;;;;;5042576;28;20048;-44
2023/09/17 11:48:43;;;;;;;33.33;30.42;;;18.80;99.90;;;;;;5023963;28;20240;-45
2023/09/17 11:51:29;;;;;;;34.13;30.92;;;18.60;99.90;;;;;;5042370;28;20047;-45
2023/09/17 11:54:04;;;;;;;34.80;31.52;;;18.60;99.90;;;;;;5020747;28;20103;-45
2023/09/17 11:56:35;;;;;;;34.17;31.10;;;18.60;99.90;;;;;;5024291;28;20843;-44
2023/09/17 11:59:08;;;;;;;35.80;32.40;;;18.70;99.90;;;;;;5024317;28;20732;-44
2023/09/17 12:01:46;;;;;;;33.88;30.58;;;19.00;99.90;;;;;;5007925;28;20037;-46
2023/09/17 12:04:13;;;;;;;31.17;28.27;;;19.20;99.90;;;;;;5047421;28;20492;-44
2023/09/17 12:06:44;;;;;;;33.13;30.02;;;19.50;99.90;;;;;;5025655;28;20091;-46
2023/09/17 12:09:20;;;;;;;33.63;30.33;;;19.60;99.90;;;;;;5007471;28;20162;-43
2023/09/17 12:11:47;;;;;;;32.30;29.48;;;19.70;99.90;;;;;;5017906;28;20183;-44
2023/09/17 12:14:13;;;;;;;35.55;32.25;;;19.70;99.90;;;;;;5042329;28;20550;-44
2023/09/17 12:16:39;;;;;;;33.97;31.00;;;19.70;99.90;;;;;;5024153;28;20471;-44
2023/09/17 12:19:05;;;;;;;33.25;30.15;;;19.80;99.90;;;;;;5007153;28;20041;-47
2023/09/17 12:21:38;;;;;;;32.47;29.58;;;19.80;99.90;;;;;;5041755;28;20052;-44
2023/09/17 12:24:08;;;;;;;32.70;29.67;;;19.80;99.90;;;;;;5042179;28;20041;-45
2023/09/17 12:27:38;;;;;;;33.47;30.38;;;19.90;99.90;;;;;;5042106;28;20624;-45
2023/09/17 12:30:08;;;;;;;30.90;28.10;;;19.90;99.90;;;;;;4975259;28;20201;-43